createdAt,value
2023-03-11T00:01:44.890Z,143544.56
2023-03-11T00:04:11.953Z,143539.69
2023-03-11T00:06:39.030Z,143565.06
2023-03-11T00:09:06.162Z,143528.84
2023-03-11T00:11:33.415Z,143533.66
2023-03-11T00:14:00.496Z,143521.56
2023-03-11T00:16:27.678Z,143518.00
2023-03-11T00:18:54.771Z,143545.75
2023-03-11T00:21:21.872Z,143495.06
2023-03-11T00:23:48.968Z,143526.44
2023-03-11T00:26:15.995Z,143498.66
2023-03-11T00:28:43.151Z,143542.13
2023-03-11T00:31:13.521Z,143496.25
2023-03-11T00:33:40.618Z,143489.00
2023-03-11T00:36:08.094Z,143485.38
2023-03-11T00:38:35.200Z,143539.69
2023-03-11T00:41:02.281Z,143509.53
2023-03-11T00:43:31.775Z,143516.75
2023-03-11T00:45:58.858Z,143524.00
2023-03-11T00:48:26.085Z,143513.16
2023-03-11T00:50:53.099Z,143487.81
2023-03-11T00:53:20.115Z,143474.53
2023-03-11T00:55:47.225Z,143441.97
2023-03-11T00:58:14.401Z,143502.28
2023-03-11T01:00:45.988Z,143504.72
2023-03-11T01:03:12.997Z,143456.44
2023-03-11T01:05:40.509Z,143466.09
2023-03-11T01:08:07.665Z,143483.00
2023-03-11T01:10:35.460Z,143505.91
2023-03-11T01:13:03.596Z,143483.00
2023-03-11T01:15:34.108Z,143509.53
2023-03-11T01:18:02.497Z,143508.34
2023-03-11T01:20:31.237Z,143417.84
2023-03-11T01:22:58.296Z,143490.25
2023-03-11T01:25:25.720Z,143466.09
2023-03-11T01:27:52.842Z,143466.09
2023-03-11T01:30:22.695Z,143462.44
2023-03-11T01:32:51.669Z,143429.88
2023-03-11T01:35:20.898Z,143444.34
2023-03-11T01:37:48.033Z,143429.88
2023-03-11T01:40:20.662Z,143422.66
2023-03-11T01:42:47.818Z,143443.16
2023-03-11T01:46:02.980Z,143412.97
2023-03-11T01:48:31.430Z,143427.50
2023-03-11T01:50:59.714Z,143451.63
2023-03-11T01:53:27.245Z,143408.16
2023-03-11T01:55:54.565Z,143444.34
2023-03-11T01:58:26.632Z,143439.53
2023-03-11T02:00:55.826Z,143419.03
2023-03-11T02:03:29.456Z,143382.84
2023-03-11T02:05:59.648Z,143437.13
2023-03-11T02:08:27.876Z,143398.50
2023-03-11T02:10:56.199Z,143417.84
2023-03-11T02:13:23.858Z,143340.59
2023-03-11T02:15:52.164Z,143349.06
2023-03-11T02:18:20.298Z,143350.28
2023-03-11T02:21:11.011Z,143399.75
2023-03-11T02:24:17.221Z,143412.97
2023-03-11T02:27:01.597Z,143405.78
2023-03-11T02:29:30.354Z,143458.88
2023-03-11T02:32:01.303Z,143379.22
2023-03-11T02:34:31.682Z,143468.50
2023-03-11T02:37:00.801Z,143466.09
2023-03-11T02:39:51.999Z,143480.56
2023-03-11T02:42:30.047Z,143445.59
2023-03-11T02:45:06.937Z,143483.00
2023-03-11T02:47:36.297Z,143480.56
2023-03-11T02:50:04.491Z,143445.59
2023-03-11T02:52:34.460Z,143450.41
2023-03-11T02:55:02.056Z,143460.06
2023-03-11T02:57:29.125Z,143396.13
2023-03-11T02:59:56.167Z,143386.47
2023-03-11T03:02:23.352Z,143335.78
2023-03-11T03:04:51.668Z,143446.78
2023-03-11T03:07:18.711Z,143427.50
2023-03-11T03:09:45.764Z,143505.91
2023-03-11T03:12:12.917Z,143493.81
2023-03-11T03:14:40.217Z,143458.88
2023-03-11T03:17:07.754Z,143444.34
2023-03-11T03:19:34.949Z,143427.50
2023-03-11T03:22:02.192Z,143444.34
2023-03-11T03:24:29.395Z,143463.69
2023-03-11T03:26:56.447Z,143476.97
2023-03-11T03:29:23.630Z,143379.22
2023-03-11T03:31:51.224Z,143434.72
2023-03-11T03:34:18.358Z,143445.59
2023-03-11T03:36:45.440Z,143451.63
2023-03-11T03:39:12.713Z,143456.44
2023-03-11T03:41:39.814Z,143468.50
2023-03-11T03:44:08.769Z,143333.41
2023-03-11T03:46:38.381Z,143432.31
2023-03-11T03:49:06.995Z,143439.53
2023-03-11T03:51:34.586Z,143461.25
2023-03-11T03:54:07.305Z,143400.94
2023-03-11T03:56:35.268Z,143420.25
2023-03-11T03:59:02.915Z,143437.13
2023-03-11T04:01:36.969Z,143429.88
2023-03-11T04:04:04.270Z,143437.13
2023-03-11T04:06:31.305Z,143432.31
2023-03-11T04:09:03.189Z,143429.88
2023-03-11T04:11:33.392Z,143456.44
2023-03-11T04:14:02.536Z,143483.00
2023-03-11T04:16:30.991Z,143439.53
2023-03-11T04:19:02.807Z,143475.72
2023-03-11T04:21:30.621Z,143367.16
2023-03-11T04:23:58.013Z,143437.13
2023-03-11T04:26:30.109Z,143454.03
2023-03-11T04:28:57.153Z,143437.13
2023-03-11T04:31:26.059Z,143427.50
2023-03-11T04:33:54.512Z,143425.06
2023-03-11T04:36:21.770Z,143423.88
2023-03-11T04:38:49.392Z,143412.97
2023-03-11T04:41:17.059Z,143400.94
2023-03-11T04:43:45.388Z,143427.50
2023-03-11T04:46:12.525Z,143386.47
2023-03-11T04:48:41.515Z,143380.41
2023-03-11T04:51:08.927Z,143374.41
2023-03-11T04:53:36.063Z,143355.13
2023-03-11T04:56:03.375Z,143318.94
2023-03-11T04:58:31.102Z,143292.41
2023-03-11T05:00:58.213Z,143261.03
2023-03-11T05:03:25.678Z,143218.84
2023-03-11T05:05:56.542Z,143253.78
2023-03-11T05:08:24.558Z,143287.56
2023-03-11T05:10:52.964Z,143280.31
2023-03-11T05:13:21.907Z,143256.22
2023-03-11T05:15:51.138Z,143277.94
2023-03-11T05:18:18.163Z,143277.94
2023-03-11T05:20:45.941Z,143310.47
2023-03-11T05:23:14.264Z,143330.97
2023-03-11T05:25:41.982Z,143265.84
2023-03-11T05:28:09.852Z,143352.69
2023-03-11T05:30:41.611Z,143332.19
2023-03-11T05:33:09.220Z,143364.75
2023-03-11T05:35:36.771Z,143364.75
2023-03-11T05:38:04.086Z,143315.31
2023-03-11T05:40:31.278Z,143359.94
2023-03-11T05:42:58.277Z,143379.22
2023-03-11T05:45:27.401Z,143345.47
2023-03-11T05:47:56.188Z,143412.97
2023-03-11T05:50:23.466Z,143378.03
2023-03-11T05:52:51.425Z,143427.50
2023-03-11T05:55:19.845Z,143409.41
2023-03-11T05:57:47.240Z,143329.75
2023-03-11T06:00:14.781Z,143384.03
2023-03-11T06:02:45.350Z,143367.16
2023-03-11T06:05:15.538Z,143415.41
2023-03-11T06:07:44.464Z,143400.94
2023-03-11T06:10:11.980Z,143422.66
2023-03-11T06:12:39.802Z,143405.78
2023-03-11T06:15:21.563Z,143398.50
2023-03-11T06:17:48.628Z,143384.03
2023-03-11T06:20:15.772Z,143403.34
2023-03-11T06:22:43.566Z,143359.94
2023-03-11T06:25:11.093Z,143373.22
2023-03-11T06:27:39.939Z,143386.47
2023-03-11T06:30:08.606Z,143398.50
2023-03-11T06:32:44.326Z,143403.34
2023-03-11T06:35:11.932Z,143370.78
2023-03-11T06:37:39.870Z,143304.41
2023-03-11T06:40:08.714Z,143362.31
2023-03-11T06:42:36.053Z,143326.13
2023-03-11T06:45:04.605Z,143405.78
2023-03-11T06:47:32.332Z,143451.63
2023-03-11T06:50:06.414Z,143486.63
2023-03-11T06:52:34.488Z,143474.53
2023-03-11T06:55:01.696Z,143481.78
2023-03-11T06:57:30.880Z,143456.44
2023-03-11T07:00:00.457Z,143439.53
2023-03-11T07:02:28.337Z,143483.00
2023-03-11T07:04:55.454Z,143495.06
2023-03-11T07:07:22.530Z,143427.50
2023-03-11T07:09:49.805Z,143487.81
2023-03-11T07:12:17.693Z,143514.38
2023-03-11T07:14:45.003Z,143528.84
2023-03-11T07:17:12.439Z,143502.28
2023-03-11T07:19:46.705Z,143508.34
2023-03-11T07:22:14.669Z,143536.09
2023-03-11T07:24:41.698Z,143509.53
2023-03-11T07:27:08.878Z,143536.09
2023-03-11T07:29:35.888Z,143638.66
2023-03-11T07:32:03.164Z,143683.34
2023-03-11T07:34:30.211Z,143676.13
2023-03-11T07:36:57.229Z,143673.69
2023-03-11T07:39:24.276Z,143656.78
2023-03-11T07:41:51.687Z,143594.00
2023-03-11T07:44:18.976Z,143729.25
2023-03-11T07:46:46.130Z,143781.19
2023-03-11T07:49:13.971Z,143750.97
2023-03-11T07:51:42.390Z,143799.31
2023-03-11T07:54:11.306Z,143808.97
2023-03-11T07:56:38.435Z,143811.38
2023-03-11T07:59:06.211Z,143775.13
2023-03-11T08:01:36.741Z,143778.75
2023-03-11T08:04:06.425Z,143775.13
2023-03-11T08:06:35.728Z,143789.66
2023-03-11T08:09:06.041Z,143819.81
2023-03-11T08:11:33.345Z,143801.72
2023-03-11T08:14:00.407Z,143755.81
2023-03-11T08:16:27.853Z,143699.06
2023-03-11T08:18:55.412Z,143644.75
2023-03-11T08:21:25.120Z,143662.84
2023-03-11T08:23:52.858Z,143730.47
2023-03-11T08:26:21.883Z,143668.88
2023-03-11T08:28:49.466Z,143589.19
2023-03-11T08:31:16.562Z,143643.50
2023-03-11T08:33:46.398Z,143695.44
2023-03-11T08:36:13.645Z,143746.16
2023-03-11T08:38:40.906Z,143712.38
2023-03-11T08:41:08.346Z,143760.63
2023-03-11T08:43:35.808Z,143801.72
2023-03-11T08:46:06.666Z,143864.53
2023-03-11T08:48:34.728Z,143886.31
2023-03-11T08:51:02.970Z,143905.63
2023-03-11T08:53:30.026Z,143871.81
2023-03-11T08:55:57.044Z,143819.81
2023-03-11T08:58:24.147Z,143894.75
2023-03-11T09:00:51.228Z,143741.34
2023-03-11T09:03:18.243Z,143871.81
2023-03-11T09:05:45.345Z,143886.31
2023-03-11T09:08:12.404Z,143922.56
2023-03-11T09:10:39.404Z,143921.34
2023-03-11T09:13:06.738Z,143929.81
2023-03-11T09:15:34.762Z,143874.19
2023-03-11T09:18:01.835Z,143926.19
2023-03-11T09:20:28.910Z,143966.06
2023-03-11T09:22:55.965Z,143989.03
2023-03-11T09:25:23.167Z,143987.78
2023-03-11T09:27:50.547Z,144031.34
2023-03-11T09:30:17.945Z,144086.94
2023-03-11T09:32:45.043Z,144129.28
2023-03-11T09:35:12.148Z,144140.16
2023-03-11T09:37:39.153Z,144132.88
2023-03-11T09:40:06.799Z,144080.91
2023-03-11T09:42:37.416Z,144055.50
2023-03-11T09:45:15.280Z,144089.38
2023-03-11T09:48:22.975Z,144041.00
2023-03-11T09:51:08.254Z,144085.75
2023-03-11T09:53:42.663Z,144109.91
2023-03-11T09:56:20.115Z,144147.44
2023-03-11T09:58:48.638Z,144073.63
2023-03-11T10:01:24.175Z,144230.88
2023-03-11T10:03:54.588Z,144245.38
2023-03-11T10:06:28.644Z,144198.22
2023-03-11T10:09:34.665Z,144159.50
2023-03-11T10:12:40.731Z,144223.59
2023-03-11T10:15:24.785Z,144324.06
2023-03-11T10:18:04.951Z,144291.34
2023-03-11T10:20:48.652Z,144311.94
2023-03-11T10:23:37.503Z,144094.22
2023-03-11T10:26:13.541Z,144105.06
2023-03-11T10:28:56.079Z,144103.88
2023-03-11T10:31:43.010Z,144120.81
2023-03-11T10:34:26.018Z,144161.94
2023-03-11T10:37:05.004Z,144091.78
2023-03-11T10:39:33.327Z,144137.72
2023-03-11T10:42:02.644Z,144275.63
2023-03-11T10:44:37.942Z,144374.88
2023-03-11T10:47:06.107Z,144361.56
2023-03-11T10:49:33.832Z,144422.06
2023-03-11T10:52:04.223Z,144436.56
2023-03-11T10:54:48.702Z,144478.97
2023-03-11T10:57:32.756Z,144449.88
2023-03-11T11:00:04.304Z,144428.09
2023-03-11T11:02:52.215Z,144372.44
2023-03-11T11:05:20.120Z,144409.94
2023-03-11T11:07:53.139Z,144401.50
2023-03-11T11:10:25.563Z,144367.59
2023-03-11T11:12:54.225Z,144340.97
2023-03-11T11:15:32.898Z,144350.63
2023-03-11T11:18:24.421Z,144340.97
2023-03-11T11:21:04.008Z,144350.63
2023-03-11T11:23:32.793Z,144476.53
2023-03-11T11:26:04.640Z,144531.00
2023-03-11T11:28:33.394Z,144580.66
2023-03-11T11:31:06.075Z,144538.28
2023-03-11T11:33:40.590Z,144526.16
2023-03-11T11:36:15.135Z,144399.06
2023-03-11T11:38:42.283Z,144376.06
2023-03-11T11:41:16.336Z,144454.72
2023-03-11T11:43:53.549Z,144469.28
2023-03-11T11:46:27.278Z,144290.16
2023-03-11T11:49:08.423Z,144440.22
2023-03-11T11:51:41.349Z,144425.69
2023-03-11T11:54:30.248Z,144508.00
2023-03-11T11:57:00.214Z,144457.16
2023-03-11T11:59:29.188Z,144476.53
2023-03-11T12:02:14.630Z,144384.53
2023-03-11T12:04:56.688Z,144458.38
2023-03-11T12:07:34.854Z,144515.28
2023-03-11T12:10:23.400Z,144468.03
2023-03-11T12:12:50.900Z,144459.56
2023-03-11T12:15:27.908Z,144512.84
2023-03-11T12:18:00.607Z,144486.22
2023-03-11T12:20:32.675Z,144471.69
2023-03-11T12:23:33.614Z,144408.72
2023-03-11T12:26:21.287Z,144432.97
2023-03-11T12:29:23.516Z,144396.66
2023-03-11T12:31:51.262Z,144437.81
2023-03-11T12:34:21.840Z,144432.97
2023-03-11T12:36:50.149Z,144408.72
2023-03-11T12:39:28.705Z,144460.81
2023-03-11T12:42:15.588Z,144459.56
2023-03-11T12:44:43.510Z,144445.06
2023-03-11T12:47:19.118Z,144478.97
2023-03-11T12:49:48.761Z,144492.28
2023-03-11T12:52:29.854Z,144452.34
2023-03-11T12:54:56.805Z,144551.63
2023-03-11T12:57:34.458Z,144532.22
2023-03-11T13:00:43.016Z,144437.81
2023-03-11T13:03:27.575Z,144413.56
2023-03-11T13:06:10.131Z,144371.22
2023-03-11T13:08:50.810Z,144333.72
2023-03-11T13:11:33.037Z,144356.72
2023-03-11T13:14:16.160Z,144371.22
2023-03-11T13:16:44.682Z,144353.06
2023-03-11T13:19:26.970Z,144514.06
2023-03-11T13:21:55.378Z,144527.38
2023-03-11T13:24:22.456Z,144498.31
2023-03-11T13:26:55.963Z,144485.00
2023-03-11T13:29:47.545Z,144617.00
2023-03-11T13:32:23.799Z,144572.19
2023-03-11T13:35:02.577Z,144633.97
2023-03-11T13:37:44.465Z,144646.06
2023-03-11T13:40:14.259Z,144585.50
2023-03-11T13:42:54.169Z,144592.78
2023-03-11T13:45:31.046Z,144573.38
2023-03-11T13:48:03.313Z,144481.38
2023-03-11T13:50:36.583Z,144594.00
2023-03-11T13:53:09.546Z,144532.22
2023-03-11T13:55:45.065Z,144377.25
2023-03-11T13:58:19.236Z,144478.97
2023-03-11T14:01:00.798Z,144459.56
2023-03-11T14:03:42.055Z,144497.13
2023-03-11T14:06:19.181Z,144510.44
2023-03-11T14:08:54.757Z,144478.97
2023-03-11T14:11:27.092Z,144413.56
2023-03-11T14:13:54.276Z,144439.00
2023-03-11T14:16:35.129Z,144468.03
2023-03-11T14:19:16.598Z,144441.41
2023-03-11T14:21:49.795Z,144505.59
2023-03-11T14:24:19.505Z,144474.13
2023-03-11T14:26:49.699Z,144504.38
2023-03-11T14:29:20.634Z,144522.53
2023-03-11T14:31:47.788Z,144568.53
2023-03-11T14:34:20.931Z,144568.53
2023-03-11T14:36:53.984Z,144575.81
2023-03-11T14:39:31.347Z,144459.56
2023-03-11T14:42:04.919Z,144478.97
2023-03-11T14:44:36.302Z,144493.50
2023-03-11T14:47:07.884Z,144494.69
2023-03-11T14:49:35.961Z,144465.66
2023-03-11T14:52:10.018Z,144465.66
2023-03-11T14:54:38.055Z,144471.69
2023-03-11T14:57:18.106Z,144522.53
2023-03-11T14:59:50.402Z,144602.47
2023-03-11T15:02:52.389Z,144641.22
2023-03-11T15:05:26.861Z,144641.22
2023-03-11T15:08:00.287Z,144604.88
2023-03-11T15:10:27.356Z,144643.66
2023-03-11T15:13:14.800Z,144617.00
2023-03-11T15:15:42.006Z,144684.88
2023-03-11T15:18:22.865Z,144619.44
2023-03-11T15:21:03.508Z,144624.28
2023-03-11T15:23:30.866Z,144670.34
2023-03-11T15:25:58.218Z,144660.63
2023-03-11T15:28:29.849Z,144632.72
2023-03-11T15:31:16.986Z,144579.47
2023-03-11T15:33:44.899Z,144556.47
2023-03-11T15:36:33.232Z,144567.34
2023-03-11T15:39:32.219Z,144527.38
2023-03-11T15:42:01.835Z,144508.00
2023-03-11T15:44:41.719Z,144529.81
2023-03-11T15:47:14.744Z,144503.16
2023-03-11T15:49:42.177Z,144483.81
2023-03-11T15:52:09.869Z,144441.41
2023-03-11T15:54:37.138Z,144454.72
2023-03-11T15:57:20.808Z,144439.00
2023-03-11T15:59:48.486Z,144446.25
2023-03-11T16:02:27.696Z,144423.25
2023-03-11T16:04:55.834Z,144391.78
2023-03-11T16:07:36.784Z,144391.78
2023-03-11T16:10:06.657Z,144314.34
2023-03-11T16:12:33.815Z,144316.78
2023-03-11T16:15:01.150Z,144316.78
2023-03-11T16:17:39.568Z,144290.16
2023-03-11T16:20:14.286Z,144294.97
2023-03-11T16:22:41.277Z,144275.63
2023-03-11T16:25:25.940Z,144279.28
2023-03-11T16:27:54.855Z,144297.44
2023-03-11T16:30:23.229Z,144357.91
2023-03-11T16:32:50.399Z,144356.72
2023-03-11T16:35:17.746Z,144333.72
2023-03-11T16:37:44.805Z,144328.88
2023-03-11T16:40:17.857Z,144309.50
2023-03-11T16:42:45.512Z,144328.88
2023-03-11T16:45:14.624Z,144317.97
2023-03-11T16:47:41.620Z,144333.72
2023-03-11T16:50:10.379Z,144302.25
2023-03-11T16:52:37.501Z,144268.34
2023-03-11T16:55:05.031Z,144251.47
2023-03-11T16:57:34.582Z,144247.81
2023-03-11T17:00:01.888Z,144280.47
2023-03-11T17:02:28.881Z,144389.38
2023-03-11T17:04:56.098Z,144374.88
2023-03-11T17:07:24.102Z,144311.94
2023-03-11T17:09:51.631Z,144230.88
2023-03-11T17:12:19.152Z,144149.81
2023-03-11T17:14:46.588Z,144101.44
2023-03-11T17:17:13.606Z,144074.88
2023-03-11T17:19:40.684Z,144072.44
2023-03-11T17:22:07.763Z,144022.88
2023-03-11T17:24:34.853Z,143978.13
2023-03-11T17:27:01.987Z,143962.44
2023-03-11T17:29:29.122Z,143868.16
2023-03-11T17:31:56.261Z,143900.78
2023-03-11T17:34:23.584Z,143883.84
2023-03-11T17:36:50.755Z,143868.16
2023-03-11T17:39:17.908Z,143847.63
2023-03-11T17:41:45.948Z,143743.78
2023-03-11T17:57:11.980Z,143671.31
2023-03-11T17:59:39.211Z,143736.50
2023-03-11T18:02:07.690Z,143725.66
2023-03-11T18:04:34.823Z,143712.38
2023-03-11T18:07:01.862Z,143695.44
2023-03-11T18:09:28.911Z,143676.13
2023-03-11T18:11:56.024Z,143672.50
2023-03-11T18:14:22.992Z,143651.97
2023-03-11T18:16:49.993Z,143635.09
2023-03-11T18:19:16.986Z,143623.00
2023-03-11T18:21:44.480Z,143594.00
2023-03-11T18:24:11.714Z,143604.88
2023-03-11T18:26:38.700Z,143591.63
2023-03-11T18:29:05.813Z,143533.66
2023-03-11T18:31:32.856Z,143554.19
2023-03-11T18:34:04.615Z,143546.94
2023-03-11T18:36:37.459Z,143528.84
2023-03-11T18:39:05.409Z,143507.09
2023-03-11T18:41:34.851Z,143491.44
2023-03-11T18:44:02.063Z,143492.63
2023-03-11T18:46:31.605Z,143456.44
2023-03-11T18:49:01.381Z,143470.91
2023-03-11T18:51:30.432Z,143445.59
2023-03-11T18:53:57.859Z,143458.88
2023-03-11T18:56:25.040Z,143441.97
2023-03-11T18:58:52.148Z,143434.72
2023-03-11T19:01:20.881Z,143429.88
2023-03-11T19:04:06.236Z,143369.59
2023-03-11T19:06:33.243Z,143415.41
2023-03-11T19:09:00.422Z,143381.66
2023-03-11T19:11:27.450Z,143374.41
2023-03-11T19:13:55.018Z,143314.09
2023-03-11T19:16:25.022Z,143312.88
2023-03-11T19:18:55.044Z,143351.47
2023-03-11T19:21:23.088Z,143317.69
2023-03-11T19:23:52.792Z,143321.31
2023-03-11T19:26:21.057Z,143315.31
2023-03-11T19:28:50.945Z,143296.03
2023-03-11T19:31:18.078Z,143281.50
2023-03-11T19:33:47.038Z,143275.50
2023-03-11T19:36:14.271Z,143241.75
2023-03-11T19:38:41.623Z,143236.94
2023-03-11T19:41:18.883Z,143261.03
2023-03-11T19:43:47.587Z,143236.94
2023-03-11T19:46:19.899Z,143220.03
2023-03-11T19:48:47.302Z,143222.44
2023-03-11T19:51:14.971Z,143212.78
2023-03-11T19:53:42.238Z,143210.41
2023-03-11T19:56:10.235Z,143214.03
2023-03-11T19:58:37.511Z,143147.72
2023-03-11T20:01:04.791Z,143162.16
2023-03-11T20:03:32.050Z,143183.88
2023-03-11T20:06:05.570Z,143141.72
2023-03-11T20:08:36.628Z,143174.25
2023-03-11T20:11:05.572Z,143175.44
2023-03-11T20:13:34.194Z,143175.44
2023-03-11T20:16:10.315Z,143150.09
2023-03-11T20:18:37.620Z,143150.09
2023-03-11T20:21:10.464Z,143042.88
2023-03-11T20:23:38.726Z,143128.44
2023-03-11T20:26:15.006Z,143088.66
2023-03-11T20:28:42.833Z,143128.44
2023-03-11T20:31:16.372Z,143064.53
2023-03-11T20:33:43.806Z,143106.75
2023-03-11T20:36:13.748Z,143123.63
2023-03-11T20:38:41.846Z,143115.19
2023-03-11T20:41:09.761Z,143113.94
2023-03-11T20:43:37.969Z,143100.69
2023-03-11T20:46:06.542Z,143072.97
2023-03-11T20:48:36.016Z,143051.31
2023-03-11T20:51:05.678Z,143082.59
2023-03-11T20:53:33.384Z,143077.78
2023-03-11T20:56:09.377Z,143082.59
2023-03-11T20:58:36.963Z,143063.34
2023-03-11T21:01:18.296Z,143082.59
2023-03-11T21:03:45.908Z,143089.84
2023-03-11T21:06:20.832Z,143079.03
2023-03-11T21:08:49.256Z,143074.22
2023-03-11T21:11:17.184Z,143106.75
2023-03-11T21:13:44.404Z,143094.66
2023-03-11T21:16:12.527Z,143093.47
2023-03-11T21:18:41.535Z,143105.56
2023-03-11T21:21:11.407Z,143094.66
2023-03-11T21:23:39.929Z,143116.38
2023-03-11T21:26:07.638Z,143066.97
2023-03-11T21:28:35.006Z,143101.94
2023-03-11T21:31:08.902Z,143106.75
2023-03-11T21:33:37.287Z,143111.56
2023-03-11T21:36:05.184Z,143117.56
2023-03-11T21:38:32.819Z,143123.63
2023-03-11T21:41:12.235Z,143106.75
2023-03-11T21:43:41.558Z,143113.94
2023-03-11T21:46:11.087Z,143070.59
2023-03-11T21:48:38.541Z,143095.88
2023-03-11T21:51:06.575Z,143080.22
2023-03-11T21:53:34.452Z,143009.13
2023-03-11T21:56:03.696Z,143052.50
2023-03-11T21:58:31.716Z,143041.66
2023-03-11T22:00:59.481Z,143036.81
2023-03-11T22:03:26.966Z,143005.50
2023-03-11T22:05:58.939Z,143001.91
2023-03-11T22:08:26.714Z,142993.47
2023-03-11T22:10:54.871Z,142981.41
2023-03-11T22:13:23.237Z,142979.03
2023-03-11T22:15:50.942Z,142974.19
2023-03-11T22:18:18.258Z,142942.91
2023-03-11T22:20:45.418Z,142966.97
2023-03-11T22:23:12.573Z,142968.16
2023-03-11T22:25:39.613Z,142960.97
2023-03-11T22:28:06.711Z,142957.34
2023-03-11T22:30:33.706Z,142952.53
2023-03-11T22:33:00.834Z,142947.72
2023-03-11T22:35:27.815Z,142947.72
2023-03-11T22:37:54.797Z,142947.72
2023-03-11T22:40:21.904Z,142948.91
2023-03-11T22:42:48.927Z,142945.28
2023-03-11T22:45:15.991Z,142962.16
2023-03-11T22:47:43.450Z,142953.72
2023-03-11T22:50:11.592Z,142947.72
2023-03-11T22:52:38.872Z,142936.84
2023-03-11T22:55:06.785Z,142938.03
2023-03-11T22:57:38.959Z,142928.41
2023-03-11T23:00:17.271Z,142928.41
2023-03-11T23:02:45.236Z,142928.41
2023-03-11T23:05:13.879Z,142940.47
2023-03-11T23:07:41.655Z,142870.63
2023-03-11T23:10:11.906Z,142958.53
2023-03-11T23:12:39.267Z,142964.53
2023-03-11T23:15:09.494Z,142954.91
2023-03-11T23:17:36.541Z,142971.78
2023-03-11T23:20:05.616Z,142969.34
2023-03-11T23:22:37.450Z,142906.75
2023-03-11T23:25:08.004Z,142995.88
2023-03-11T23:27:35.007Z,142988.66
2023-03-11T23:30:02.079Z,142981.41
2023-03-11T23:32:29.198Z,142993.47
2023-03-11T23:34:56.279Z,143017.56
2023-03-11T23:37:23.832Z,143015.19
2023-03-11T23:39:50.835Z,143018.75
2023-03-11T23:42:25.477Z,143028.38
2023-03-11T23:44:53.874Z,143027.19
2023-03-11T23:47:21.193Z,143021.19
2023-03-11T23:49:48.207Z,143029.63
2023-03-11T23:52:15.765Z,143036.81
2023-03-11T23:54:42.822Z,143030.81
2023-03-11T23:57:09.945Z,142962.16
2023-03-11T23:59:36.998Z,142998.31
